Washington, District of Columbia
Current Conditions -  °F | °C
As of 5:14 PM on Tuesday 21 Oct 2014 (Local Time) from KDCA Reporting Station
Light Rain Light Rain  
Wind Chill: 63°   Ceiling: 6000
Heat Index: 63°   Visibility: 8mi
Dew Point: 52°   Wind: 7mph
Humidity: 68%   Direction: 340°NNW
Pressure: 29.83"   Gusts: NA
Location:  38.89°N, 77.03°W
Report Text: KDCA 212114Z 34006KT 8SM -RA SCT020 BKN060 OVC070 17/11 A2983 RMK AO2 BINOVC P0001
Loading
Personal Weather Stations






























Interactive Weather Map
Tropical Storm Tracking
New forecast layout! Learn more

10-Day Weather Forecast

Advertisements
Track Severe Weather on mobile